Time;durP1;ratioP1;P1;durP2;ratioP2;P2;SDS_P1;SDS_P2;PMS_P1;PMS_P2;Temp;Humidity;BMP_temperature;BMP_pressure;BME280_temperature;BME280_humidity;BME280_pressure;Samples;Min_cycle;Max_cycle;Signal;HPM_P1;HPM_P2
2022/04/01 00:06:12;;;;;;;21.00;14.40;;;;;;;0.32;91.59;96873.12;433253;1269;99274;-41
2022/04/01 00:16:20;;;;;;;18.70;13.80;;;;;;;0.31;91.59;96869.80;433262;1269;112489;-40
2022/04/01 00:26:27;;;;;;;17.70;12.80;;;;;;;0.28;91.59;96859.34;433169;1269;108746;-40
2022/04/01 00:36:34;;;;;;;16.30;12.30;;;;;;;0.24;91.69;96848.96;433276;1269;99314;-42
2022/04/01 00:46:40;;;;;;;15.50;11.10;;;;;;;0.23;91.70;96846.08;433050;1270;108841;-40
2022/04/01 00:56:48;;;;;;;13.10;10.80;;;;;;;0.20;91.71;96840.85;432843;1270;99245;-40
2022/04/01 01:06:55;;;;;;;14.90;11.30;;;;;;;0.19;91.68;96837.02;433698;1258;112454;-41
2022/04/01 01:17:04;;;;;;;13.20;11.20;;;;;;;0.16;91.67;96830.04;432291;1270;108885;-39
2022/04/01 01:37:19;;;;;;;13.70;9.90;;;;;;;0.14;91.90;96818.54;432296;1270;107790;-41
2022/04/01 01:47:26;;;;;;;13.60;10.70;;;;;;;0.10;92.06;96808.13;432479;1270;99266;-41
2022/04/01 01:57:35;;;;;;;12.10;8.90;;;;;;;0.09;92.08;96804.33;432785;1270;112897;-40
2022/04/01 02:07:45;;;;;;;13.40;9.50;;;;;;;0.06;92.17;96799.59;432515;1270;108858;-40
2022/04/01 02:17:52;;;;;;;12.70;8.70;;;;;;;0.04;92.07;96796.33;432419;1270;99257;-43
2022/04/01 02:27:59;;;;;;;11.30;8.10;;;;;;;0.02;91.94;96788.87;432671;1270;108666;-43
2022/04/01 02:38:06;;;;;;;10.50;8.10;;;;;;;0.00;92.00;96786.74;432511;1270;99263;-39
2022/04/01 02:48:14;;;;;;;9.40;7.90;;;;;;;-0.04;92.28;96785.87;432805;1270;112473;-40
2022/04/01 02:58:22;;;;;;;8.40;7.50;;;;;;;-0.04;91.91;96785.23;432420;1271;109317;-40
2022/04/01 03:08:29;;;;;;;9.10;7.00;;;;;;;-0.08;91.97;96785.93;432620;1268;97992;-43
2022/04/01 03:28:43;;;;;;;6.70;6.00;;;;;;;-0.14;91.90;96793.33;432610;1270;99253;-41
2022/04/01 03:49:02;;;;;;;9.20;6.10;;;;;;;-0.18;92.14;96791.95;432621;1270;107139;-40
2022/04/01 03:59:11;;;;;;;7.90;6.40;;;;;;;-0.21;92.02;96793.09;432660;1270;98858;-40
2022/04/01 04:09:17;;;;;;;7.90;7.10;;;;;;;-0.22;92.05;96798.96;432444;1270;109055;-41
2022/04/01 04:19:24;;;;;;;7.50;6.30;;;;;;;-0.29;91.99;96797.61;432453;1270;99878;-40
2022/04/01 04:29:34;;;;;;;12.30;7.90;;;;;;;-0.32;92.00;96802.82;432228;1270;112410;-39
2022/04/01 04:39:42;;;;;;;9.10;6.50;;;;;;;-0.32;92.00;96811.13;432559;1270;108782;-39
2022/04/01 04:49:50;;;;;;;8.10;7.00;;;;;;;-0.37;91.90;96814.98;432542;1270;98850;-39
2022/04/01 05:00:00;;;;;;;8.50;7.10;;;;;;;-0.45;91.91;96815.20;432473;1271;109402;-41
2022/04/01 05:10:12;;;;;;;8.40;6.70;;;;;;;-0.48;91.85;96827.91;432457;1271;99803;-40
2022/04/01 05:20:23;;;;;;;13.40;11.30;;;;;;;-0.53;91.87;96820.81;432722;1271;112437;-40
2022/04/01 05:30:29;;;;;;;9.40;7.70;;;;;;;-0.58;91.89;96819.91;432266;1272;108738;-40
2022/04/01 05:40:38;;;;;;;7.60;6.80;;;;;;;-0.54;91.97;96834.44;432313;1270;98066;-40
2022/04/01 05:50:47;;;;;;;10.30;7.50;;;;;;;-0.45;91.90;96834.34;432532;1273;108862;-42
2022/04/01 06:01:01;;;;;;;8.30;6.50;;;;;;;-0.42;91.85;96820.20;432470;1271;99328;-40
2022/04/01 06:11:15;;;;;;;16.50;11.90;;;;;;;-0.34;91.76;96824.45;432575;1271;112630;-40
2022/04/01 06:21:25;;;;;;;11.10;7.80;;;;;;;-0.24;91.80;96828.05;432494;1273;109079;-43
2022/04/01 06:31:33;;;;;;;9.10;6.90;;;;;;;-0.20;91.48;96824.69;432521;1271;98034;-40
2022/04/01 06:41:45;;;;;;;7.00;5.40;;;;;;;-0.13;91.12;96830.08;432492;1271;112433;-42
2022/04/01 06:51:52;;;;;;;12.30;8.30;;;;;;;-0.11;90.99;96829.37;432460;1271;108239;-40
2022/04/01 07:01:59;;;;;;;7.40;6.00;;;;;;;-0.08;90.64;96826.06;432482;1271;98832;-40
2022/04/01 07:12:07;;;;;;;9.10;6.90;;;;;;;0.06;90.54;96828.51;432448;1271;108930;-43
2022/04/01 07:22:14;;;;;;;12.40;8.80;;;;;;;-0.01;90.10;96825.45;432347;1271;99260;-39
2022/04/01 07:32:32;;;;;;;11.50;8.70;;;;;;;0.07;89.76;96828.38;432389;1271;114257;-39
2022/04/01 07:42:39;;;;;;;9.70;7.50;;;;;;;0.25;89.67;96832.35;432331;1273;108812;-40
2022/04/01 07:52:47;;;;;;;11.20;8.50;;;;;;;0.22;89.33;96829.48;432488;1271;99293;-42
2022/04/01 08:13:02;;;;;;;13.60;9.90;;;;;;;0.13;89.03;96843.30;432524;1273;99302;-40
2022/04/01 08:23:09;;;;;;;10.00;7.80;;;;;;;0.13;88.82;96849.69;432422;1271;113026;-41
2022/04/01 08:33:20;;;;;;;8.80;7.20;;;;;;;0.38;88.08;96857.00;432280;1273;108982;-40
2022/04/01 08:53:37;;;;;;;12.70;7.90;;;;;;;0.74;87.49;96865.29;432416;1271;111989;-41
2022/04/01 09:03:45;;;;;;;15.80;10.20;;;;;;;0.78;87.53;96878.50;432254;1273;109444;-41
2022/04/01 09:13:52;;;;;;;11.30;7.20;;;;;;;0.59;87.41;96877.09;428509;1271;5370402;-40
2022/04/01 09:24:00;;;;;;;10.30;7.70;;;;;;;0.56;87.24;96876.46;432420;1271;108719;-43
2022/04/01 09:44:20;;;;;;;10.50;8.20;;;;;;;0.63;86.87;96888.27;432525;1271;108826;-40
2022/04/01 09:54:28;;;;;;;10.40;7.60;;;;;;;0.74;86.40;96895.10;432486;1271;98873;-41
2022/04/01 10:04:35;;;;;;;12.50;9.50;;;;;;;0.81;86.17;96888.56;432320;1271;112556;-41
2022/04/01 10:14:44;;;;;;;12.40;8.30;;;;;;;0.73;85.99;96888.50;432324;1271;108916;-40
2022/04/01 10:45:27;;;;;;;10.10;7.50;;;;;;;0.82;85.44;96899.48;432533;1273;99273;-44
2022/04/01 10:55:34;;;;;;;16.30;10.50;;;;;;;0.71;85.53;96905.87;432613;1271;112432;-41
2022/04/01 11:05:41;;;;;;;13.60;9.20;;;;;;;0.64;85.34;96898.67;432241;1273;108861;-39
2022/04/01 11:15:48;;;;;;;11.30;8.90;;;;;;;0.89;85.53;96900.99;432444;1273;99292;-41
2022/04/01 11:25:57;;;;;;;15.40;11.10;;;;;;;0.86;85.54;96908.90;432519;1273;106143;-42
2022/04/01 11:36:03;;;;;;;14.20;10.20;;;;;;;0.94;85.45;96904.70;432488;1271;98010;-40
2022/04/01 11:46:14;;;;;;;12.00;9.30;;;;;;;0.98;85.31;96907.91;432309;1273;112442;-44
2022/04/01 11:56:24;;;;;;;15.50;12.20;;;;;;;0.79;85.31;96904.30;432478;1271;108952;-40
2022/04/01 12:16:55;;;;;;;13.20;9.10;;;;;;;0.59;85.63;96909.58;432469;1271;107998;-41
2022/04/01 12:27:03;;;;;;;16.70;13.50;;;;;;;0.54;85.29;96920.44;432607;1273;98369;-40
2022/04/01 12:37:14;;;;;;;13.20;10.80;;;;;;;0.45;85.39;96926.25;432446;1273;111447;-44
2022/04/01 12:47:26;;;;;;;12.00;9.40;;;;;;;0.43;85.40;96924.30;432435;1272;108192;-39
2022/04/01 12:57:36;;;;;;;18.70;13.60;;;;;;;0.52;85.60;96913.86;432436;1271;99267;-40
2022/04/01 13:07:43;;;;;;;13.00;9.60;;;;;;;0.45;85.38;96913.81;432526;1271;108886;-40
2022/04/01 13:17:53;;;;;;;10.90;9.70;;;;;;;0.43;85.52;96918.49;432294;1274;99254;-40
2022/04/01 13:28:00;;;;;;;16.20;11.70;;;;;;;0.53;85.55;96924.41;432485;1271;113262;-40
2022/04/01 13:38:08;;;;;;;11.10;8.70;;;;;;;0.39;85.34;96932.23;432413;1273;108996;-43
2022/04/01 13:48:16;;;;;;;9.00;7.90;;;;;;;0.39;85.10;96943.16;432489;1273;99260;-40
2022/04/01 13:58:24;;;;;;;14.10;11.40;;;;;;;0.42;85.21;96934.51;432705;1271;108809;-40
2022/04/01 14:08:31;;;;;;;13.00;8.90;;;;;;;0.42;84.90;96931.50;432594;1271;98856;-41
2022/04/01 14:18:40;;;;;;;11.30;8.30;;;;;;;0.39;85.00;96934.31;432670;1271;111478;-40
2022/04/01 14:28:47;;;;;;;18.30;13.30;;;;;;;0.16;85.29;96941.04;432500;1271;107760;-42
2022/04/01 14:38:54;;;;;;;13.60;9.10;;;;;;;0.04;85.25;96945.52;432561;1271;99387;-42
2022/04/01 14:49:01;;;;;;;14.50;8.10;;;;;;;0.00;85.31;96953.08;432338;1273;108848;-41
2022/04/01 14:59:08;;;;;;;18.70;11.70;;;;;;;0.00;85.47;96963.67;432634;1271;98162;-42
2022/04/01 15:09:16;;;;;;;19.50;11.70;;;;;;;-0.10;85.79;96969.68;432353;1273;112408;-40
2022/04/01 15:19:24;;;;;;;13.90;9.70;;;;;;;-0.14;85.73;96975.05;432406;1270;109792;-41
2022/04/01 15:29:33;;;;;;;11.00;8.90;;;;;;;-0.16;85.63;96974.86;432538;1271;99286;-43
2022/04/01 15:39:41;;;;;;;14.10;8.90;;;;;;;-0.16;85.74;96971.90;432609;1268;112589;-41
2022/04/01 15:49:50;;;;;;;17.60;11.60;;;;;;;-0.30;85.88;96987.29;432479;1270;107755;-45
2022/04/01 15:59:57;;;;;;;15.60;9.70;;;;;;;-0.41;86.21;97004.28;432566;1271;99229;-40
2022/04/01 16:10:02;;;;;;;19.90;10.30;;;;;;;-0.33;86.21;97006.39;432509;1270;108751;-41
2022/04/01 16:20:07;;;;;;;11.40;8.20;;;;;;;-0.26;86.23;97016.16;432507;1270;98861;-40
2022/04/01 16:30:15;;;;;;;14.70;11.10;;;;;;;-0.29;86.31;97017.69;432657;1270;112442;-40
2022/04/01 16:40:23;;;;;;;22.70;14.70;;;;;;;-0.44;86.56;97031.05;432511;1270;108832;-39
2022/04/01 16:50:30;;;;;;;18.40;11.00;;;;;;;-0.49;86.54;97037.10;432371;1270;99271;-41
2022/04/01 17:00:38;;;;;;;16.70;9.10;;;;;;;-0.50;86.86;97045.88;432651;1270;109047;-40
2022/04/01 17:21:10;;;;;;;13.40;10.00;;;;;;;-0.53;87.19;97052.83;432535;1270;112062;-41
2022/04/01 17:31:16;;;;;;;22.10;13.20;;;;;;;-0.56;87.36;97049.83;432417;1270;110044;-42
2022/04/01 17:51:30;;;;;;;16.10;10.40;;;;;;;-0.61;87.46;97069.96;432753;1270;109147;-40
2022/04/01 18:01:40;;;;;;;17.20;9.60;;;;;;;-0.57;87.54;97081.75;432415;1270;99293;-42
2022/04/01 18:11:48;;;;;;;16.60;9.90;;;;;;;-0.56;87.63;97097.76;432601;1270;112342;-41
2022/04/01 18:21:55;;;;;;;17.30;10.40;;;;;;;-0.61;87.50;97111.49;432741;1270;108745;-40
2022/04/01 18:32:04;;;;;;;10.60;8.40;;;;;;;-0.73;87.99;97113.52;432360;1270;99282;-39
2022/04/01 18:42:13;;;;;;;13.20;8.90;;;;;;;-0.68;87.64;97121.27;432582;1270;109847;-41
2022/04/01 18:52:19;;;;;;;;;;;;;;;-0.66;87.65;97131.58;432370;1269;98841;-40
2022/04/01 19:02:28;;;;;;;15.40;8.80;;;;;;;-0.64;87.57;97136.49;432406;1270;112435;-41
2022/04/01 19:12:38;;;;;;;24.80;12.60;;;;;;;-0.65;87.56;97142.88;432588;1270;108786;-42
2022/04/01 19:22:48;;;;;;;18.10;11.50;;;;;;;-0.71;87.77;97136.54;432663;1270;99273;-41
2022/04/01 19:32:55;;;;;;;18.70;10.20;;;;;;;-0.71;87.53;97143.58;432543;1270;108824;-41
2022/04/01 19:43:02;;;;;;;17.30;10.60;;;;;;;-0.66;87.82;97147.98;432443;1268;98856;-40
2022/04/01 19:53:09;;;;;;;16.30;10.40;;;;;;;-0.66;87.70;97153.18;432478;1270;112407;-40
2022/04/01 20:03:17;;;;;;;21.40;12.60;;;;;;;-0.72;87.77;97153.63;432530;1270;108748;-40
2022/04/01 20:13:28;;;;;;;19.10;12.40;;;;;;;-0.83;87.64;97149.35;432428;1270;99378;-43
2022/04/01 20:23:37;;;;;;;17.90;10.10;;;;;;;-0.80;87.65;97146.65;432581;1270;109068;-40
2022/04/01 20:33:44;;;;;;;15.40;11.00;;;;;;;-0.80;87.93;97152.75;432566;1269;99316;-41
2022/04/01 20:43:52;;;;;;;22.60;13.00;;;;;;;-0.75;87.75;97147.54;432524;1270;112791;-41
2022/04/01 20:53:58;;;;;;;22.90;16.30;;;;;;;-0.76;87.68;97150.77;432548;1270;108643;-40
2022/04/01 21:04:05;;;;;;;16.00;11.90;;;;;;;-0.84;87.69;97158.10;432591;1270;99300;-40
2022/04/01 21:14:12;;;;;;;16.50;11.60;;;;;;;-0.82;87.50;97153.70;428495;1270;5550432;-38
2022/04/01 21:24:23;;;;;;;14.90;9.60;;;;;;;-0.79;87.63;97142.34;432522;1270;99250;-39
2022/04/01 21:34:31;;;;;;;11.20;8.60;;;;;;;-0.79;87.53;97148.21;432483;1270;112443;-39
2022/04/01 21:54:44;;;;;;;21.60;11.80;;;;;;;-0.90;87.61;97152.33;432629;1271;99302;-39
2022/04/01 22:04:51;;;;;;;17.70;12.80;;;;;;;-0.87;87.63;97154.61;432349;1270;108875;-39
2022/04/01 22:14:58;;;;;;;20.80;12.80;;;;;;;-0.84;87.36;97155.41;432625;1271;99257;-41
2022/04/01 22:25:07;;;;;;;15.20;11.00;;;;;;;-0.79;87.45;97149.16;432479;1268;112317;-38
2022/04/01 22:35:14;;;;;;;22.90;13.20;;;;;;;-0.82;87.45;97157.66;432568;1269;109606;-39
2022/04/01 22:45:21;;;;;;;22.80;13.80;;;;;;;-0.88;87.48;97154.96;432535;1270;99286;-40
2022/04/01 22:55:28;;;;;;;16.90;10.50;;;;;;;-0.92;87.29;97157.07;432472;1270;112442;-41
2022/04/01 23:05:35;;;;;;;16.20;10.50;;;;;;;-0.88;87.42;97155.08;432611;1270;108907;-40
2022/04/01 23:15:42;;;;;;;19.60;10.00;;;;;;;-0.85;87.25;97153.73;432419;1270;98130;-40
2022/04/01 23:25:49;;;;;;;19.00;10.70;;;;;;;-0.83;87.11;97148.40;432579;1270;108793;-41
2022/04/01 23:46:02;;;;;;;34.60;14.50;;;;;;;-0.88;87.24;97134.02;432299;1270;112373;-40
2022/04/01 23:56:09;;;;;;;22.00;13.20;;;;;;;-0.96;87.32;97137.13;432514;1270;108764;-40
